Time,TemperatureF,DewpointF,PressureIn,WindDirection,WindDirectionDegrees,WindSpeedMPH,WindSpeedGustMPH,Humidity,HourlyPrecipIn,Conditions,Clouds,dailyrainin,SoftwareType,DateUTC
2013-03-03 00:02:00,26.0,18.0,30.06,NNE,18,0.0,0.0,72,0.00,,,0.00,,2013-03-03 05:02:00,
2013-03-03 00:12:00,26.0,18.0,30.06,NNE,18,0.0,0.0,72,0.00,,,0.00,,2013-03-03 05:12:00,
2013-03-03 00:22:00,26.0,19.0,30.06,North,360,0.0,6.0,73,0.00,,,0.00,,2013-03-03 05:22:00,
2013-03-03 00:32:00,26.0,19.0,30.06,NNE,31,1.0,5.0,73,0.00,,,0.00,,2013-03-03 05:32:00,
2013-03-03 00:42:00,26.0,19.0,30.06,NNE,31,1.0,5.0,73,0.00,,,0.00,,2013-03-03 05:42:00,
2013-03-03 00:52:00,26.0,19.0,30.06,NNE,31,0.0,2.0,73,0.00,,,0.00,,2013-03-03 05:52:00,
2013-03-03 01:02:00,26.0,19.0,30.06,NNW,336,0.0,2.0,74,0.00,,,0.00,,2013-03-03 06:02:00,
2013-03-03 01:11:00,26.0,19.0,30.06,NNW,336,0.0,2.0,74,0.00,,,0.00,,2013-03-03 06:11:00,
2013-03-03 01:21:00,26.0,19.0,30.06,NNW,336,0.0,0.0,75,0.00,,,0.00,,2013-03-03 06:21:00,
2013-03-03 01:32:00,26.0,19.0,30.06,North,11,0.0,5.0,75,0.00,,,0.00,,2013-03-03 06:32:00,
2013-03-03 01:42:00,26.0,19.0,30.06,North,11,0.0,5.0,75,0.00,,,0.00,,2013-03-03 06:42:00,
2013-03-03 01:52:00,26.0,19.0,30.06,North,11,0.0,3.0,75,0.00,,,0.00,,2013-03-03 06:52:00,
2013-03-03 02:01:00,26.0,19.0,30.06,North,11,0.0,3.0,75,0.00,,,0.00,,2013-03-03 07:01:00,
2013-03-03 02:11:00,26.0,19.0,30.06,North,11,0.0,3.0,75,0.00,,,0.00,,2013-03-03 07:11:00,
2013-03-03 02:21:00,26.0,19.0,30.06,North,11,0.0,1.0,76,0.00,,,0.00,,2013-03-03 07:21:00,
2013-03-03 02:32:00,26.0,19.0,30.06,WNW,302,0.0,3.0,76,0.00,,,0.00,,2013-03-03 07:32:00,
2013-03-03 02:42:00,26.0,19.0,30.06,WNW,302,0.0,3.0,76,0.00,,,0.00,,2013-03-03 07:42:00,
2013-03-03 02:52:00,26.0,19.0,30.06,WNW,302,0.0,2.0,76,0.00,,,0.00,,2013-03-03 07:52:00,
2013-03-03 03:01:00,26.0,19.0,30.06,WNW,302,0.0,1.0,76,0.00,,,0.00,,2013-03-03 08:01:00,
2013-03-03 03:11:00,26.0,19.0,30.06,WNW,302,0.0,1.0,76,0.00,,,0.00,,2013-03-03 08:11:00,
2013-03-03 03:21:00,26.0,20.0,30.05,WNW,302,1.0,3.0,77,0.00,,,0.00,,2013-03-03 08:21:00,
2013-03-03 03:31:00,26.0,20.0,30.04,WNW,302,0.0,2.0,78,0.00,,,0.00,,2013-03-03 08:31:00,
2013-03-03 03:42:00,26.0,20.0,30.04,WNW,302,0.0,2.0,78,0.00,,,0.00,,2013-03-03 08:42:00,
2013-03-03 03:54:00,26.0,20.0,30.03,WNW,302,3.0,7.0,79,0.00,,,0.00,,2013-03-03 08:54:00,
2013-03-03 04:01:00,26.0,21.0,30.03,North,353,1.0,6.0,80,0.00,,,0.00,,2013-03-03 09:01:00,
2013-03-03 04:12:00,26.0,21.0,30.03,North,353,1.0,6.0,80,0.00,,,0.00,,2013-03-03 09:12:00,
2013-03-03 04:21:00,26.0,20.0,30.03,NE,44,4.0,8.0,77,0.00,,,0.00,,2013-03-03 09:21:00,
2013-03-03 04:32:00,25.0,19.0,30.03,NNE,16,1.0,6.0,76,0.00,,,0.00,,2013-03-03 09:32:00,
2013-03-03 04:42:00,25.0,19.0,30.03,NNE,16,1.0,6.0,76,0.00,,,0.00,,2013-03-03 09:42:00,
2013-03-03 04:52:00,25.0,19.0,30.04,NNE,16,2.0,8.0,76,0.00,,,0.00,,2013-03-03 09:52:00,
2013-03-03 05:01:00,25.0,19.0,30.04,NNW,329,6.0,13.0,76,0.00,,,0.00,,2013-03-03 10:01:00,
2013-03-03 05:11:00,25.0,19.0,30.04,NNW,329,6.0,13.0,76,0.00,,,0.00,,2013-03-03 10:11:00,
2013-03-03 05:21:00,25.0,19.0,30.04,NNE,23,2.0,8.0,78,0.00,,,0.00,,2013-03-03 10:21:00,
2013-03-03 05:32:00,25.0,19.0,30.04,NNW,346,3.0,8.0,78,0.00,,,0.00,,2013-03-03 10:32:00,
2013-03-03 05:42:00,25.0,19.0,30.04,NNW,346,3.0,8.0,78,0.00,,,0.00,,2013-03-03 10:42:00,
2013-03-03 05:52:00,24.0,18.0,30.04,North,360,2.0,9.0,76,0.00,,,0.00,,2013-03-03 10:52:00,
2013-03-03 06:01:00,24.0,17.0,30.04,North,360,0.0,3.0,75,0.00,,,0.00,,2013-03-03 11:01:00,
2013-03-03 06:11:00,24.0,17.0,30.04,North,360,0.0,3.0,75,0.00,,,0.00,,2013-03-03 11:11:00,
2013-03-03 06:22:00,24.0,17.0,30.04,North,360,0.0,3.0,75,0.00,,,0.00,,2013-03-03 11:22:00,
2013-03-03 06:32:00,24.0,17.0,30.04,North,360,0.0,3.0,75,0.00,,,0.00,,2013-03-03 11:32:00,
2013-03-03 13:53:00,30.0,15.0,30.04,NW,311,8.0,14.0,53,0.00,,,0.00,,2013-03-03 18:53:00,
2013-03-03 14:02:00,30.0,15.0,30.04,WNW,298,7.0,11.0,53,0.00,,,0.00,,2013-03-03 19:02:00,
2013-03-03 14:11:00,30.0,15.0,30.04,WNW,298,7.0,11.0,53,0.00,,,0.00,,2013-03-03 19:11:00,
2013-03-03 14:22:00,30.0,15.0,30.04,WNW,298,9.0,13.0,52,0.00,,,0.00,,2013-03-03 19:22:00,
2013-03-03 14:32:00,30.0,15.0,30.03,North,354,4.0,9.0,54,0.00,,,0.00,,2013-03-03 19:32:00,
2013-03-03 14:42:00,30.0,15.0,30.03,North,354,4.0,9.0,54,0.00,,,0.00,,2013-03-03 19:42:00,
2013-03-03 14:52:00,30.0,15.0,30.03,North,359,3.0,11.0,53,0.00,,,0.00,,2013-03-03 19:52:00,
2013-03-03 15:01:00,31.0,16.0,30.03,NW,312,3.0,12.0,54,0.00,,,0.00,,2013-03-03 20:01:00,
2013-03-03 15:11:00,31.0,16.0,30.03,NW,312,3.0,12.0,54,0.00,,,0.00,,2013-03-03 20:11:00,
2013-03-03 15:22:00,30.0,15.0,30.03,NW,311,4.0,15.0,52,0.00,,,0.00,,2013-03-03 20:22:00,
2013-03-03 15:32:00,30.0,15.0,30.03,NW,322,5.0,11.0,53,0.00,,,0.00,,2013-03-03 20:32:00,
2013-03-03 15:42:00,30.0,15.0,30.03,NW,322,5.0,11.0,53,0.00,,,0.00,,2013-03-03 20:42:00,
2013-03-03 15:53:00,30.0,15.0,30.03,NNW,339,3.0,12.0,52,0.00,,,0.00,,2013-03-03 20:53:00,
2013-03-03 16:02:00,30.0,15.0,30.03,NW,306,5.0,11.0,53,0.00,,,0.00,,2013-03-03 21:02:00,
2013-03-03 16:11:00,30.0,15.0,30.03,NW,306,5.0,11.0,53,0.00,,,0.00,,2013-03-03 21:11:00,
2013-03-03 16:22:00,30.0,15.0,30.03,NNW,329,8.0,11.0,53,0.00,,,0.00,,2013-03-03 21:22:00,
2013-03-03 16:32:00,30.0,16.0,30.03,NW,311,3.0,11.0,56,0.00,,,0.00,,2013-03-03 21:32:00,
2013-03-03 16:42:00,30.0,16.0,30.03,NW,311,3.0,11.0,56,0.00,,,0.00,,2013-03-03 21:42:00,
2013-03-03 16:52:00,30.0,17.0,30.04,NW,305,4.0,8.0,57,0.00,,,0.00,,2013-03-03 21:52:00,
2013-03-03 17:02:00,30.0,16.0,30.04,North,356,3.0,11.0,55,0.00,,,0.00,,2013-03-03 22:02:00,
2013-03-03 17:11:00,30.0,16.0,30.04,North,356,3.0,11.0,55,0.00,,,0.00,,2013-03-03 22:11:00,
2013-03-03 17:22:00,30.0,15.0,30.04,WNW,296,4.0,10.0,54,0.00,,,0.00,,2013-03-03 22:22:00,
2013-03-03 17:32:00,30.0,16.0,30.04,NW,313,6.0,11.0,55,0.00,,,0.00,,2013-03-03 22:32:00,
2013-03-03 17:42:00,30.0,16.0,30.04,NW,313,6.0,11.0,55,0.00,,,0.00,,2013-03-03 22:42:00,
2013-03-03 17:52:00,30.0,16.0,30.04,WNW,289,4.0,10.0,56,0.00,,,0.00,,2013-03-03 22:52:00,
2013-03-03 18:02:00,29.0,16.0,30.05,WNW,302,2.0,10.0,58,0.00,,,0.00,,2013-03-03 23:02:00,
2013-03-03 18:11:00,29.0,16.0,30.05,WNW,302,2.0,10.0,58,0.00,,,0.00,,2013-03-03 23:11:00,
2013-03-03 18:21:00,29.0,16.0,30.05,NW,308,2.0,11.0,58,0.00,,,0.00,,2013-03-03 23:21:00,
2013-03-03 18:32:00,29.0,15.0,30.05,NNW,328,3.0,7.0,56,0.00,,,0.00,,2013-03-03 23:32:00,
2013-03-03 18:42:00,29.0,15.0,30.05,NNW,328,3.0,7.0,56,0.00,,,0.00,,2013-03-03 23:42:00,
2013-03-03 18:52:00,29.0,16.0,30.06,North,356,1.0,8.0,58,0.00,,,0.00,,2013-03-03 23:52:00,
2013-03-03 19:02:00,29.0,16.0,30.06,NNW,339,0.0,7.0,58,0.00,,,0.00,,2013-03-04 00:02:00,
2013-03-03 19:11:00,29.0,16.0,30.06,NNW,339,0.0,7.0,58,0.00,,,0.00,,2013-03-04 00:11:00,
2013-03-03 19:22:00,29.0,16.0,30.06,NW,318,0.0,5.0,59,0.00,,,0.00,,2013-03-04 00:22:00,
2013-03-03 19:32:00,29.0,17.0,30.06,NW,312,1.0,6.0,60,0.00,,,0.00,,2013-03-04 00:32:00,
2013-03-03 19:42:00,29.0,17.0,30.06,NW,312,1.0,6.0,60,0.00,,,0.00,,2013-03-04 00:42:00,
2013-03-03 19:52:00,29.0,17.0,30.07,NW,312,0.0,3.0,61,0.00,,,0.00,,2013-03-04 00:52:00,
2013-03-03 20:01:00,29.0,17.0,30.07,NW,311,0.0,6.0,61,0.00,,,0.00,,2013-03-04 01:01:00,
2013-03-03 20:12:00,29.0,17.0,30.07,NW,311,0.0,6.0,61,0.00,,,0.00,,2013-03-04 01:12:00,
2013-03-03 20:22:00,29.0,17.0,30.07,NW,311,0.0,3.0,60,0.00,,,0.00,,2013-03-04 01:22:00,
2013-03-03 20:32:00,28.0,16.0,30.07,NW,311,2.0,4.0,60,0.00,,,0.00,,2013-03-04 01:32:00,
2013-03-03 20:42:00,28.0,16.0,30.07,NW,311,2.0,4.0,60,0.00,,,0.00,,2013-03-04 01:42:00,
2013-03-03 20:52:00,28.0,16.0,30.07,NW,311,0.0,5.0,61,0.00,,,0.00,,2013-03-04 01:52:00,
2013-03-03 21:01:00,28.0,17.0,30.08,NW,311,1.0,2.0,62,0.00,,,0.00,,2013-03-04 02:01:00,
2013-03-03 21:11:00,28.0,17.0,30.08,NW,311,1.0,2.0,62,0.00,,,0.00,,2013-03-04 02:11:00,
2013-03-03 21:22:00,28.0,17.0,30.08,NW,311,0.0,3.0,62,0.00,,,0.00,,2013-03-04 02:22:00,
2013-03-03 21:32:00,28.0,17.0,30.08,NW,311,1.0,3.0,62,0.00,,,0.00,,2013-03-04 02:32:00,
2013-03-03 21:42:00,28.0,17.0,30.08,NW,311,1.0,3.0,62,0.00,,,0.00,,2013-03-04 02:42:00,
2013-03-03 21:53:00,28.0,17.0,30.08,NW,311,0.0,3.0,62,0.00,,,0.00,,2013-03-04 02:53:00,
2013-03-03 22:02:00,28.0,17.0,30.08,NW,311,0.0,2.0,62,0.00,,,0.00,,2013-03-04 03:02:00,
2013-03-03 22:11:00,28.0,17.0,30.08,NW,311,0.0,2.0,62,0.00,,,0.00,,2013-03-04 03:11:00,
2013-03-03 22:22:00,27.0,16.0,30.07,NW,311,0.0,0.0,63,0.00,,,0.00,,2013-03-04 03:22:00,
2013-03-03 22:32:00,26.0,16.0,30.07,NW,311,0.0,0.0,65,0.00,,,0.00,,2013-03-04 03:32:00,
2013-03-03 22:42:00,26.0,17.0,30.07,NW,311,0.0,0.0,67,0.00,,,0.00,,2013-03-04 03:42:00,
2013-03-03 22:53:00,26.0,17.0,30.07,NW,311,0.0,0.0,67,0.00,,,0.00,,2013-03-04 03:53:00,
2013-03-03 23:01:00,25.0,16.0,30.07,NW,311,0.0,0.0,69,0.00,,,0.00,,2013-03-04 04:01:00,
2013-03-03 23:11:00,25.0,16.0,30.07,NW,311,0.0,0.0,69,0.00,,,0.00,,2013-03-04 04:11:00,
2013-03-03 23:22:00,25.0,17.0,30.07,NW,311,0.0,0.0,70,0.00,,,0.00,,2013-03-04 04:22:00,
2013-03-03 23:32:00,24.0,16.0,30.07,NW,311,0.0,0.0,72,0.00,,,0.00,,2013-03-04 04:32:00,
2013-03-03 23:42:00,24.0,16.0,30.07,NW,311,0.0,0.0,72,0.00,,,0.00,,2013-03-04 04:42:00,
2013-03-03 23:52:00,23.0,16.0,30.07,NW,311,0.0,0.0,73,0.00,,,0.00,,2013-03-04 04:52:00,